PWSweather.com
Personal Weather Stations
Station Observations
HAJERN
Hajeren, HvittingfossNO 3647

HajerenHvittingfossNO 3647

Lat: 59.54314324, Lon: 9.95778703

Elevation: 1320

Station Type: Fine Ofset WS 1080

www.hajern.no

High Low Average
Temperature 33.8°F1.0°C 25.3°F-3.7°C 29.7°F-1.3°C
Dew Point 32.7°F0.4°C 11.8°F-11.2°C 22.4°F-5.3°C
Winds 17.3 mph 27.8 kmh 1.1 mph 1.8 kmh 7.0 mph SW11.3 kmh SW
Wind Gusts 28.2 mph45.4 kmh 2.2 mph3.5 kmh 11.0 mph17.7 kmh
Humidity 100% 48% 76%
Pressure 29.36 in994.2 mb 28.84 in976.6 mb -
Precipitation 0.00 in0.0 mm - -
Hour Temp Dew Point Humidity Winds Wind Gusts Pressure Precip Precip Rate Daily Precip Total
12:00 AM 28.0°F-2.2°C 12.3°F-10.9°C 51% 16.3 mph W26.2 kmh W 21.3 mph34.3 kmh 29.23 in989.8 mb 0.00 in0.0 mm 0.00 in0.0 mm 0.00 in0.0 mm
12:15 AM 28.0°F-2.2°C 12.7°F-10.7°C 52% 13.4 mph W21.6 kmh W 19.0 mph30.6 kmh 29.24 in990.2 mb 0.00 in0.0 mm 0.00 in0.0 mm 0.00 in0.0 mm
12:30 AM 28.2°F-2.1°C 12.5°F-10.8°C 51% 8.2 mph WNW13.2 kmh WNW 13.0 mph20.9 kmh 29.25 in990.5 mb 0.00 in0.0 mm 0.00 in0.0 mm 0.00 in0.0 mm
12:45 AM 28.6°F-1.9°C 12.8°F-10.7°C 51% 9.5 mph WNW15.3 kmh WNW 11.4 mph18.3 kmh 29.26 in990.9 mb 0.00 in0.0 mm 0.00 in0.0 mm 0.00 in0.0 mm
01:00 AM 27.9°F-2.3°C 12.6°F-10.8°C 52% 8.9 mph NW14.3 kmh NW 13.6 mph21.9 kmh 29.27 in991.2 mb 0.00 in0.0 mm 0.00 in0.0 mm 0.00 in0.0 mm
01:15 AM 28.4°F-2.0°C 12.6°F-10.8°C 51% 9.8 mph NW15.8 kmh NW 15.9 mph25.6 kmh 29.27 in991.2 mb 0.00 in0.0 mm 0.00 in0.0 mm 0.00 in0.0 mm
01:30 AM 28.2°F-2.1°C 12.9°F-10.6°C 52% 7.1 mph NW11.4 kmh NW 9.8 mph15.8 kmh 29.27 in991.2 mb 0.00 in0.0 mm 0.00 in0.0 mm 0.00 in0.0 mm
01:45 AM 29.8°F-1.2°C 13.0°F-10.6°C 49% 11.3 mph WNW18.2 kmh WNW 16.8 mph27.0 kmh 29.27 in991.2 mb 0.00 in0.0 mm 0.00 in0.0 mm 0.00 in0.0 mm
02:00 AM 30.0°F-1.1°C 12.7°F-10.7°C 48% 12.4 mph NW20.0 kmh NW 18.3 mph29.5 kmh 29.28 in991.5 mb 0.00 in0.0 mm 0.00 in0.0 mm 0.00 in0.0 mm
02:15 AM 30.6°F-0.8°C 13.2°F-10.4°C 48% 14.0 mph WNW22.5 kmh WNW 21.3 mph34.3 kmh 29.29 in991.9 mb 0.00 in0.0 mm 0.00 in0.0 mm 0.00 in0.0 mm
02:30 AM 30.4°F-0.9°C 13.1°F-10.5°C 48% 12.5 mph WNW20.1 kmh WNW 17.4 mph28.0 kmh 29.29 in991.9 mb 0.00 in0.0 mm 0.00 in0.0 mm 0.00 in0.0 mm
02:45 AM 30.0°F-1.1°C 12.7°F-10.7°C 48% 8.9 mph WNW14.3 kmh WNW 15.2 mph24.5 kmh 29.31 in992.6 mb 0.00 in0.0 mm 0.00 in0.0 mm 0.00 in0.0 mm
03:00 AM 29.3°F-1.5°C 13.0°F-10.6°C 50% 6.6 mph NW10.6 kmh NW 10.7 mph17.2 kmh 29.31 in992.6 mb 0.00 in0.0 mm 0.00 in0.0 mm 0.00 in0.0 mm
03:15 AM 28.8°F-1.8°C 13.4°F-10.3°C 52% 6.5 mph WSW10.5 kmh WSW 12.1 mph19.5 kmh 29.32 in992.9 mb 0.00 in0.0 mm 0.00 in0.0 mm 0.00 in0.0 mm
03:30 AM 28.4°F-2.0°C 13.1°F-10.5°C 52% 2.6 mph N4.2 kmh N 3.8 mph6.1 kmh 29.32 in992.9 mb 0.00 in0.0 mm 0.00 in0.0 mm 0.00 in0.0 mm
03:45 AM 27.7°F-2.4°C 12.8°F-10.7°C 53% 3.5 mph ENE5.6 kmh ENE 6.9 mph11.1 kmh 29.33 in993.2 mb 0.00 in0.0 mm 0.00 in0.0 mm 0.00 in0.0 mm
04:00 AM 26.8°F-2.9°C 12.8°F-10.7°C 55% 3.9 mph ENE6.3 kmh ENE 4.5 mph7.2 kmh 29.33 in993.2 mb 0.00 in0.0 mm 0.00 in0.0 mm 0.00 in0.0 mm
04:15 AM 26.8°F-2.9°C 12.8°F-10.7°C 55% 3.1 mph NE5.0 kmh NE 4.5 mph7.2 kmh 29.32 in992.9 mb 0.00 in0.0 mm 0.00 in0.0 mm 0.00 in0.0 mm
04:30 AM 27.7°F-2.4°C 12.8°F-10.7°C 53% 3.6 mph N5.8 kmh N 6.0 mph9.7 kmh 29.33 in993.2 mb 0.00 in0.0 mm 0.00 in0.0 mm 0.00 in0.0 mm
04:45 AM 27.9°F-2.3°C 12.1°F-11.1°C 51% 2.2 mph N3.5 kmh N 5.4 mph8.7 kmh 29.34 in993.6 mb 0.00 in0.0 mm 0.00 in0.0 mm 0.00 in0.0 mm
05:00 AM 27.1°F-2.7°C 12.3°F-10.9°C 53% 1.4 mph W2.3 kmh W 3.1 mph5.0 kmh 29.34 in993.6 mb 0.00 in0.0 mm 0.00 in0.0 mm 0.00 in0.0 mm
05:15 AM 25.9°F-3.4°C 12.4°F-10.9°C 56% 3.8 mph SW6.1 kmh SW 6.9 mph11.1 kmh 29.34 in993.6 mb 0.00 in0.0 mm 0.00 in0.0 mm 0.00 in0.0 mm
05:30 AM 25.3°F-3.7°C 12.3°F-10.9°C 57% 2.8 mph WSW4.5 kmh WSW 4.5 mph7.2 kmh 29.35 in993.9 mb 0.00 in0.0 mm 0.00 in0.0 mm 0.00 in0.0 mm
05:45 AM 26.6°F-3.0°C 13.1°F-10.5°C 56% 4.6 mph W7.4 kmh W 6.0 mph9.7 kmh 29.36 in994.2 mb 0.00 in0.0 mm 0.00 in0.0 mm 0.00 in0.0 mm
06:00 AM 27.9°F-2.3°C 12.6°F-10.8°C 52% 2.9 mph W4.7 kmh W 4.5 mph7.2 kmh 29.35 in993.9 mb 0.00 in0.0 mm 0.00 in0.0 mm 0.00 in0.0 mm
06:15 AM 26.6°F-3.0°C 11.8°F-11.2°C 53% 1.1 mph WSW1.8 kmh WSW 2.2 mph3.5 kmh 29.36 in994.2 mb 0.00 in0.0 mm 0.00 in0.0 mm 0.00 in0.0 mm
06:30 AM 25.7°F-3.5°C 12.6°F-10.8°C 57% 2.2 mph SW3.5 kmh SW 4.5 mph7.2 kmh 29.36 in994.2 mb 0.00 in0.0 mm 0.00 in0.0 mm 0.00 in0.0 mm
06:45 AM 26.8°F-2.9°C 13.6°F-10.2°C 57% 3.7 mph SSE6.0 kmh SSE 6.0 mph9.7 kmh 29.34 in993.6 mb 0.00 in0.0 mm 0.00 in0.0 mm 0.00 in0.0 mm
07:00 AM 27.1°F-2.7°C 13.2°F-10.4°C 55% 3.8 mph S6.1 kmh S 5.4 mph8.7 kmh 29.36 in994.2 mb 0.00 in0.0 mm 0.00 in0.0 mm 0.00 in0.0 mm
07:15 AM 27.3°F-2.6°C 13.3°F-10.4°C 55% 2.3 mph S3.7 kmh S 4.5 mph7.2 kmh 29.35 in993.9 mb 0.00 in0.0 mm 0.00 in0.0 mm 0.00 in0.0 mm
07:30 AM 27.3°F-2.6°C 13.3°F-10.4°C 55% 3.2 mph S5.1 kmh S 5.4 mph8.7 kmh 29.35 in993.9 mb 0.00 in0.0 mm 0.00 in0.0 mm 0.00 in0.0 mm
07:45 AM 27.5°F-2.5°C 13.9°F-10.1°C 56% 4.4 mph S7.1 kmh S 6.0 mph9.7 kmh 29.35 in993.9 mb 0.00 in0.0 mm 0.00 in0.0 mm 0.00 in0.0 mm
08:00 AM 27.7°F-2.4°C 14.5°F-9.7°C 57% 3.3 mph SW5.3 kmh SW 4.5 mph7.2 kmh 29.34 in993.6 mb 0.00 in0.0 mm 0.00 in0.0 mm 0.00 in0.0 mm
08:15 AM 27.3°F-2.6°C 14.5°F-9.7°C 58% 4.4 mph S7.1 kmh S 5.4 mph8.7 kmh 29.34 in993.6 mb 0.00 in0.0 mm 0.00 in0.0 mm 0.00 in0.0 mm
08:30 AM 27.9°F-2.3°C 14.6°F-9.7°C 57% 5.1 mph SSW8.2 kmh SSW 6.9 mph11.1 kmh 29.33 in993.2 mb 0.00 in0.0 mm 0.00 in0.0 mm 0.00 in0.0 mm
08:45 AM 28.0°F-2.2°C 15.2°F-9.3°C 58% 8.6 mph SW13.8 kmh SW 12.1 mph19.5 kmh 29.34 in993.6 mb 0.00 in0.0 mm 0.00 in0.0 mm 0.00 in0.0 mm
09:00 AM 28.4°F-2.0°C 15.1°F-9.4°C 57% 7.5 mph SW12.1 kmh SW 9.8 mph15.8 kmh 29.34 in993.6 mb 0.00 in0.0 mm 0.00 in0.0 mm 0.00 in0.0 mm
09:15 AM 28.9°F-1.7°C 15.7°F-9.1°C 57% 5.7 mph S9.2 kmh S 9.2 mph14.8 kmh 29.34 in993.6 mb 0.00 in0.0 mm 0.00 in0.0 mm 0.00 in0.0 mm
09:30 AM 29.3°F-1.5°C 15.2°F-9.3°C 55% 7.6 mph S12.2 kmh S 9.2 mph14.8 kmh 29.32 in992.9 mb 0.00 in0.0 mm 0.00 in0.0 mm 0.00 in0.0 mm
09:45 AM 29.3°F-1.5°C 15.2°F-9.3°C 55% 4.6 mph SSW7.4 kmh SSW 6.0 mph9.7 kmh 29.32 in992.9 mb 0.00 in0.0 mm 0.00 in0.0 mm 0.00 in0.0 mm
10:00 AM 29.5°F-1.4°C 15.8°F-9.0°C 56% 7.6 mph SW12.2 kmh SW 11.4 mph18.3 kmh 29.30 in992.2 mb 0.00 in0.0 mm 0.00 in0.0 mm 0.00 in0.0 mm
10:15 AM 29.3°F-1.5°C 15.6°F-9.1°C 56% 7.4 mph SW11.9 kmh SW 12.1 mph19.5 kmh 29.30 in992.2 mb 0.00 in0.0 mm 0.00 in0.0 mm 0.00 in0.0 mm
10:30 AM 29.3°F-1.5°C 16.0°F-8.9°C 57% 7.2 mph SW11.6 kmh SW 10.7 mph17.2 kmh 29.30 in992.2 mb 0.00 in0.0 mm 0.00 in0.0 mm 0.00 in0.0 mm
10:45 AM 29.3°F-1.5°C 16.4°F-8.7°C 58% 4.4 mph SW7.1 kmh SW 9.2 mph14.8 kmh 29.29 in991.9 mb 0.00 in0.0 mm 0.00 in0.0 mm 0.00 in0.0 mm
11:00 AM 29.7°F-1.3°C 16.3°F-8.7°C 57% 5.1 mph S8.2 kmh S 6.9 mph11.1 kmh 29.27 in991.2 mb 0.00 in0.0 mm 0.00 in0.0 mm 0.00 in0.0 mm
11:15 AM 29.3°F-1.5°C 16.8°F-8.4°C 59% 7.2 mph SSW11.6 kmh SSW 11.4 mph18.3 kmh 29.27 in991.2 mb 0.00 in0.0 mm 0.00 in0.0 mm 0.00 in0.0 mm
11:30 AM 28.8°F-1.8°C 18.9°F-7.3°C 66% 6.0 mph SSW9.7 kmh SSW 8.3 mph13.4 kmh 29.26 in990.9 mb 0.00 in0.0 mm 0.00 in0.0 mm 0.00 in0.0 mm
11:45 AM 28.4°F-2.0°C 20.9°F-6.2°C 73% 6.9 mph SW11.1 kmh SW 9.8 mph15.8 kmh 29.25 in990.5 mb 0.00 in0.0 mm 0.00 in0.0 mm 0.00 in0.0 mm
12:00 PM 28.0°F-2.2°C 22.4°F-5.3°C 79% 5.7 mph S9.2 kmh S 8.3 mph13.4 kmh 29.23 in989.8 mb 0.00 in0.0 mm 0.00 in0.0 mm 0.00 in0.0 mm
12:15 PM 28.2°F-2.1°C 24.0°F-4.4°C 84% 6.8 mph S10.9 kmh S 9.8 mph15.8 kmh 29.22 in989.5 mb 0.00 in0.0 mm 0.00 in0.0 mm 0.00 in0.0 mm
12:30 PM 28.4°F-2.0°C 25.3°F-3.7°C 88% 5.7 mph SSE9.2 kmh SSE 7.6 mph12.2 kmh 29.20 in988.8 mb 0.00 in0.0 mm 0.00 in0.0 mm 0.00 in0.0 mm
12:45 PM 28.6°F-1.9°C 26.6°F-3.0°C 92% 8.9 mph SE14.3 kmh SE 14.5 mph23.3 kmh 29.18 in988.1 mb 0.00 in0.0 mm 0.00 in0.0 mm 0.00 in0.0 mm
01:00 PM 28.8°F-1.8°C 27.0°F-2.8°C 93% 8.0 mph S12.9 kmh S 15.2 mph24.5 kmh 29.17 in987.8 mb 0.00 in0.0 mm 0.00 in0.0 mm 0.00 in0.0 mm
01:15 PM 28.8°F-1.8°C 27.5°F-2.5°C 95% 8.4 mph SE13.5 kmh SE 15.9 mph25.6 kmh 29.16 in987.5 mb 0.00 in0.0 mm 0.00 in0.0 mm 0.00 in0.0 mm
01:30 PM 28.8°F-1.8°C 27.8°F-2.3°C 96% 7.8 mph SE12.6 kmh SE 11.4 mph18.3 kmh 29.14 in986.8 mb 0.00 in0.0 mm 0.00 in0.0 mm 0.00 in0.0 mm
01:45 PM 28.8°F-1.8°C 28.0°F-2.2°C 97% 5.2 mph SE8.4 kmh SE 9.2 mph14.8 kmh 29.11 in985.8 mb 0.00 in0.0 mm 0.00 in0.0 mm 0.00 in0.0 mm
02:00 PM 29.1°F-1.6°C 29.1°F-1.6°C 100% 5.3 mph SSE8.5 kmh SSE 10.7 mph17.2 kmh 29.10 in985.4 mb 0.00 in0.0 mm 0.00 in0.0 mm 0.00 in0.0 mm
02:15 PM 29.3°F-1.5°C 29.1°F-1.6°C 99% 6.8 mph S10.9 kmh S 10.7 mph17.2 kmh 29.08 in984.8 mb 0.00 in0.0 mm 0.00 in0.0 mm 0.00 in0.0 mm
02:30 PM 29.7°F-1.3°C 29.4°F-1.4°C 99% 5.4 mph SE8.7 kmh SE 6.9 mph11.1 kmh 29.05 in983.7 mb 0.00 in0.0 mm 0.00 in0.0 mm 0.00 in0.0 mm
02:45 PM 29.8°F-1.2°C 29.6°F-1.3°C 99% 5.7 mph SE9.2 kmh SE 11.4 mph18.3 kmh 29.03 in983.1 mb 0.00 in0.0 mm 0.00 in0.0 mm 0.00 in0.0 mm
03:00 PM 30.0°F-1.1°C 29.8°F-1.2°C 99% 5.2 mph SE8.4 kmh SE 9.2 mph14.8 kmh 29.02 in982.7 mb 0.00 in0.0 mm 0.00 in0.0 mm 0.00 in0.0 mm
03:15 PM 30.0°F-1.1°C 29.8°F-1.2°C 99% 6.9 mph SSE11.1 kmh SSE 9.2 mph14.8 kmh 28.99 in981.7 mb 0.00 in0.0 mm 0.00 in0.0 mm 0.00 in0.0 mm
03:30 PM 30.0°F-1.1°C 29.8°F-1.2°C 99% 7.8 mph S12.6 kmh S 11.4 mph18.3 kmh 28.99 in981.7 mb 0.00 in0.0 mm 0.00 in0.0 mm 0.00 in0.0 mm
03:45 PM 30.0°F-1.1°C 29.8°F-1.2°C 99% 10.1 mph SE16.3 kmh SE 13.6 mph21.9 kmh 28.97 in981.0 mb 0.00 in0.0 mm 0.00 in0.0 mm 0.00 in0.0 mm
04:00 PM 30.2°F-1.0°C 30.0°F-1.1°C 99% 6.8 mph S10.9 kmh S 12.1 mph19.5 kmh 28.95 in980.4 mb 0.00 in0.0 mm 0.00 in0.0 mm 0.00 in0.0 mm
04:15 PM 30.2°F-1.0°C 30.0°F-1.1°C 99% 6.8 mph S10.9 kmh S 10.7 mph17.2 kmh 28.93 in979.7 mb 0.00 in0.0 mm 0.00 in0.0 mm 0.00 in0.0 mm
04:30 PM 30.4°F-0.9°C 30.1°F-1.1°C 99% 6.4 mph S10.3 kmh S 7.6 mph12.2 kmh 28.92 in979.3 mb 0.00 in0.0 mm 0.00 in0.0 mm 0.00 in0.0 mm
04:45 PM 30.6°F-0.8°C 30.3°F-0.9°C 99% 4.4 mph SSE7.1 kmh SSE 6.9 mph11.1 kmh 28.91 in979.0 mb 0.00 in0.0 mm 0.00 in0.0 mm 0.00 in0.0 mm
05:00 PM 31.1°F-0.5°C 30.9°F-0.6°C 99% 5.2 mph S8.4 kmh S 8.3 mph13.4 kmh 28.90 in978.7 mb 0.00 in0.0 mm 0.00 in0.0 mm 0.00 in0.0 mm
05:15 PM 31.3°F-0.4°C 31.0°F-0.6°C 99% 6.4 mph SSW10.3 kmh SSW 11.4 mph18.3 kmh 28.89 in978.3 mb 0.00 in0.0 mm 0.00 in0.0 mm 0.00 in0.0 mm
05:30 PM 30.9°F-0.6°C 30.7°F-0.7°C 99% 4.4 mph SW7.1 kmh SW 6.0 mph9.7 kmh 28.87 in977.7 mb 0.00 in0.0 mm 0.00 in0.0 mm 0.00 in0.0 mm
05:45 PM 30.7°F-0.7°C 30.5°F-0.8°C 99% 6.0 mph WSW9.7 kmh WSW 8.3 mph13.4 kmh 28.88 in978.0 mb 0.00 in0.0 mm 0.00 in0.0 mm 0.00 in0.0 mm
06:00 PM 30.9°F-0.6°C 30.7°F-0.7°C 99% 9.0 mph SW14.5 kmh SW 14.5 mph23.3 kmh 28.87 in977.7 mb 0.00 in0.0 mm 0.00 in0.0 mm 0.00 in0.0 mm
06:15 PM 31.5°F-0.3°C 31.2°F-0.4°C 99% 9.9 mph SW15.9 kmh SW 14.5 mph23.3 kmh 28.86 in977.3 mb 0.00 in0.0 mm 0.00 in0.0 mm 0.00 in0.0 mm
06:30 PM 32.0°F0.0°C 31.8°F-0.1°C 99% 11.9 mph SW19.2 kmh SW 13.6 mph21.9 kmh 28.86 in977.3 mb 0.00 in0.0 mm 0.00 in0.0 mm 0.00 in0.0 mm
06:45 PM 31.6°F-0.2°C 31.4°F-0.3°C 99% 7.3 mph SW11.7 kmh SW 9.2 mph14.8 kmh 28.86 in977.3 mb 0.00 in0.0 mm 0.00 in0.0 mm 0.00 in0.0 mm
07:00 PM 31.6°F-0.2°C 31.4°F-0.3°C 99% 6.5 mph W10.5 kmh W 10.7 mph17.2 kmh 28.85 in977.0 mb 0.00 in0.0 mm 0.00 in0.0 mm 0.00 in0.0 mm
07:15 PM 32.4°F0.2°C 32.1°F0.1°C 99% 9.4 mph W15.1 kmh W 11.4 mph18.3 kmh 28.86 in977.3 mb 0.00 in0.0 mm 0.00 in0.0 mm 0.00 in0.0 mm
07:30 PM 32.7°F0.4°C 32.5°F0.3°C 99% 9.9 mph W15.9 kmh W 19.0 mph30.6 kmh 28.85 in977.0 mb 0.00 in0.0 mm 0.00 in0.0 mm 0.00 in0.0 mm
07:45 PM 32.4°F0.2°C 32.1°F0.1°C 99% 8.0 mph WSW12.9 kmh WSW 11.4 mph18.3 kmh 28.85 in977.0 mb 0.00 in0.0 mm 0.00 in0.0 mm 0.00 in0.0 mm
08:00 PM 31.8°F-0.1°C 31.6°F-0.2°C 99% 5.5 mph W8.9 kmh W 8.3 mph13.4 kmh 28.84 in976.6 mb 0.00 in0.0 mm 0.00 in0.0 mm 0.00 in0.0 mm
08:15 PM 32.2°F0.1°C 31.9°F-0.1°C 99% 8.5 mph SW13.7 kmh SW 12.1 mph19.5 kmh 28.84 in976.6 mb 0.00 in0.0 mm 0.00 in0.0 mm 0.00 in0.0 mm
08:30 PM 32.0°F0.0°C 31.8°F-0.1°C 99% 8.6 mph SW13.8 kmh SW 11.4 mph18.3 kmh 28.85 in977.0 mb 0.00 in0.0 mm 0.00 in0.0 mm 0.00 in0.0 mm
08:45 PM 32.2°F0.1°C 31.9°F-0.1°C 99% 7.7 mph WSW12.4 kmh WSW 11.4 mph18.3 kmh 28.85 in977.0 mb 0.00 in0.0 mm 0.00 in0.0 mm 0.00 in0.0 mm
09:00 PM 32.4°F0.2°C 32.1°F0.1°C 99% 7.3 mph WSW11.7 kmh WSW 10.7 mph17.2 kmh 28.86 in977.3 mb 0.00 in0.0 mm 0.00 in0.0 mm 0.00 in0.0 mm
09:15 PM 32.7°F0.4°C 32.7°F0.4°C 100% 8.4 mph WSW13.5 kmh WSW 13.6 mph21.9 kmh 28.85 in977.0 mb 0.00 in0.0 mm 0.00 in0.0 mm 0.00 in0.0 mm
09:30 PM 33.3°F0.7°C 32.0°F0.0°C 95% 12.1 mph WSW19.5 kmh WSW 20.6 mph33.2 kmh 28.85 in977.0 mb 0.00 in0.0 mm 0.00 in0.0 mm 0.00 in0.0 mm
09:45 PM 33.1°F0.6°C 31.0°F-0.6°C 92% 12.1 mph WSW19.5 kmh WSW 18.3 mph29.5 kmh 28.85 in977.0 mb 0.00 in0.0 mm 0.00 in0.0 mm 0.00 in0.0 mm
10:00 PM 33.6°F0.9°C 31.6°F-0.2°C 92% 14.1 mph WSW22.7 kmh WSW 19.0 mph30.6 kmh 28.85 in977.0 mb 0.00 in0.0 mm 0.00 in0.0 mm 0.00 in0.0 mm
10:15 PM 33.8°F1.0°C 31.2°F-0.4°C 90% 15.7 mph WSW25.3 kmh WSW 28.2 mph45.4 kmh 28.86 in977.3 mb 0.00 in0.0 mm 0.00 in0.0 mm 0.00 in0.0 mm
10:30 PM 33.8°F1.0°C 30.9°F-0.6°C 89% 15.6 mph WSW25.1 kmh WSW 19.7 mph31.7 kmh 28.84 in976.6 mb 0.00 in0.0 mm 0.00 in0.0 mm 0.00 in0.0 mm
10:45 PM 33.4°F0.8°C 30.8°F-0.7°C 90% 14.2 mph WSW22.9 kmh WSW 19.0 mph30.6 kmh 28.84 in976.6 mb 0.00 in0.0 mm 0.00 in0.0 mm 0.00 in0.0 mm
11:00 PM 33.4°F0.8°C 31.4°F-0.3°C 92% 16.4 mph SW26.4 kmh SW 21.3 mph34.3 kmh 28.85 in977.0 mb 0.00 in0.0 mm 0.00 in0.0 mm 0.00 in0.0 mm
11:15 PM 33.6°F0.9°C 31.3°F-0.4°C 91% 17.3 mph SW27.8 kmh SW 21.3 mph34.3 kmh 28.85 in977.0 mb 0.00 in0.0 mm 0.00 in0.0 mm 0.00 in0.0 mm
11:30 PM 33.4°F0.8°C 31.1°F-0.5°C 91% 13.3 mph SW21.4 kmh SW 20.6 mph33.2 kmh 28.85 in977.0 mb 0.00 in0.0 mm 0.00 in0.0 mm 0.00 in0.0 mm
11:45 PM 33.1°F0.6°C 31.3°F-0.4°C 93% 12.2 mph WSW19.6 kmh WSW 16.8 mph27.0 kmh 28.84 in976.6 mb 0.00 in0.0 mm 0.00 in0.0 mm 0.00 in0.0 mm